Time;durP1;ratioP1;P1;durP2;ratioP2;P2;SDS_P1;SDS_P2;PMS_P1;PMS_P2;Temp;Humidity;BMP_temperature;BMP_pressure;BME280_temperature;BME280_humidity;BME280_pressure;Samples;Min_cycle;Max_cycle;Signal;HPM_P1;HPM_P2
2023/08/08 00:00:26;;;;;;;3.55;2.63;;;;;;;-140.66;100.00;55571.53;5134448;27;20030;-73
2023/08/08 00:03:12;;;;;;;3.88;2.78;;;;;;;-140.66;100.00;55571.53;5134137;27;20027;-73
2023/08/08 00:05:57;;;;;;;3.65;2.70;;;;;;;-140.66;100.00;55571.53;5134510;27;20023;-73
2023/08/08 00:08:43;;;;;;;4.00;2.63;;;;;;;-140.66;100.00;55571.53;5133808;27;20030;-73
2023/08/08 00:11:30;;;;;;;3.95;2.50;;;;;;;-140.66;100.00;55571.53;5134327;27;20027;-73
2023/08/08 00:14:16;;;;;;;3.58;2.58;;;;;;;-140.66;100.00;55571.53;5133985;27;20034;-73
2023/08/08 00:17:01;;;;;;;4.57;2.70;;;;;;;-140.66;100.00;55571.53;5134020;27;20384;-72
2023/08/08 00:19:47;;;;;;;3.63;2.60;;;;;;;-140.66;100.00;55571.53;5133924;28;20033;-72
2023/08/08 00:22:33;;;;;;;6.00;3.00;;;;;;;-140.66;100.00;55571.53;5134584;28;20015;-74
2023/08/08 00:25:19;;;;;;;5.40;3.10;;;;;;;-140.66;100.00;55571.53;5135413;28;20138;-72
2023/08/08 00:28:04;;;;;;;6.68;3.17;;;;;;;-140.66;100.00;55571.53;5134526;28;20072;-73
2023/08/08 00:30:50;;;;;;;4.25;2.90;;;;;;;-140.66;100.00;55571.53;5134418;28;20031;-73
2023/08/08 00:33:36;;;;;;;4.43;2.78;;;;;;;-140.66;100.00;55571.53;5134718;28;20325;-72
2023/08/08 00:36:22;;;;;;;4.25;2.72;;;;;;;-140.66;100.00;55571.53;5134232;28;20106;-72
2023/08/08 00:39:07;;;;;;;3.40;2.50;;;;;;;-140.66;100.00;55571.53;5134440;28;20448;-74
2023/08/08 00:41:53;;;;;;;4.97;2.88;;;;;;;-140.66;100.00;55571.53;5134186;28;20027;-72
2023/08/08 00:44:40;;;;;;;4.00;2.60;;;;;;;-140.66;100.00;55571.53;5134158;28;20019;-73
2023/08/08 00:47:26;;;;;;;3.03;2.35;;;;;;;-140.66;100.00;55571.53;5133981;28;20051;-72
2023/08/08 00:50:13;;;;;;;3.33;2.22;;;;;;;-140.66;100.00;55571.53;5135162;28;20042;-73
2023/08/08 00:52:59;;;;;;;5.15;2.40;;;;;;;-140.66;100.00;55571.53;5134384;28;20039;-73
2023/08/08 00:55:45;;;;;;;2.95;2.53;;;;;;;-140.66;100.00;55571.53;5134400;28;20030;-73
2023/08/08 00:58:31;;;;;;;5.05;2.25;;;;;;;-140.66;100.00;55571.53;5133503;28;20164;-72
2023/08/08 01:01:18;;;;;;;3.58;2.40;;;;;;;-140.66;100.00;55571.53;5133575;28;20106;-72
2023/08/08 01:04:06;;;;;;;2.72;2.42;;;;;;;-140.66;100.00;55571.53;5134385;28;20109;-73
2023/08/08 01:07:08;;;;;;;3.58;2.33;;;;;;;-140.66;100.00;55571.53;5132791;28;20031;-74
2023/08/08 01:10:14;;;;;;;3.67;2.20;;;;;;;-140.66;100.00;55571.53;5134182;28;20015;-73
2023/08/08 01:13:05;;;;;;;2.85;2.55;;;;;;;-140.66;100.00;55571.53;5133540;28;20455;-73
2023/08/08 01:15:54;;;;;;;4.03;2.50;;;;;;;-140.66;100.00;55571.53;5134005;28;20030;-73
2023/08/08 01:18:41;;;;;;;2.67;2.15;;;;;;;-140.66;100.00;55571.53;5134092;28;20031;-74
2023/08/08 01:21:29;;;;;;;3.47;2.17;;;;;;;-140.66;100.00;55571.53;5134368;28;20038;-73
2023/08/08 01:24:21;;;;;;;4.38;2.53;;;;;;;-140.66;100.00;55571.53;5133306;28;20039;-74
2023/08/08 01:27:07;;;;;;;3.05;2.38;;;;;;;-140.66;100.00;55571.53;5137118;27;20031;-74
2023/08/08 01:29:53;;;;;;;2.70;2.28;;;;;;;-140.66;100.00;55571.53;5137593;27;20019;-74
2023/08/08 01:32:39;;;;;;;2.92;2.15;;;;;;;-140.66;100.00;55571.53;5137259;27;20378;-73
2023/08/08 01:35:30;;;;;;;2.80;2.30;;;;;;;-140.66;100.00;55571.53;5136368;27;20023;-73
2023/08/08 01:38:43;;;;;;;2.60;2.30;;;;;;;-140.66;100.00;55571.53;5138334;27;20038;-73
2023/08/08 01:41:31;;;;;;;4.13;2.40;;;;;;;-140.66;100.00;55571.53;5138496;27;20034;-74
2023/08/08 01:44:18;;;;;;;2.78;2.10;;;;;;;-140.66;100.00;55571.53;5137212;27;20066;-73
2023/08/08 01:47:04;;;;;;;3.20;2.80;;;;;;;-140.66;100.00;55571.53;5137496;27;20190;-73
2023/08/08 01:49:49;;;;;;;3.38;2.42;;;;;;;-140.66;100.00;55571.53;5137664;27;20039;-73
2023/08/08 01:52:35;;;;;;;2.42;2.10;;;;;;;-140.66;100.00;55571.53;5136991;27;20034;-74
2023/08/08 01:55:21;;;;;;;3.42;2.60;;;;;;;-140.66;100.00;55571.53;5136601;27;20110;-73
2023/08/08 01:58:07;;;;;;;3.13;2.60;;;;;;;-140.66;100.00;55571.53;5137128;27;20069;-74
2023/08/08 02:00:52;;;;;;;3.33;2.40;;;;;;;-140.66;100.00;55571.53;5137960;27;20455;-74
2023/08/08 02:03:38;;;;;;;4.45;2.67;;;;;;;-140.66;100.00;55571.53;5136834;27;20153;-73
2023/08/08 02:06:24;;;;;;;3.15;2.22;;;;;;;-140.66;100.00;55571.53;5136377;27;20033;-73
2023/08/08 02:09:09;;;;;;;3.10;2.58;;;;;;;-140.66;100.00;55571.53;5136819;27;20030;-73
2023/08/08 02:11:55;;;;;;;3.15;2.80;;;;;;;-140.66;100.00;55571.53;5136640;27;20030;-74
2023/08/08 02:14:41;;;;;;;4.88;2.92;;;;;;;-140.66;100.00;55571.53;5137543;27;20030;-73
2023/08/08 02:17:27;;;;;;;3.88;2.65;;;;;;;-140.66;100.00;55571.53;5136851;27;20425;-73
2023/08/08 02:20:13;;;;;;;3.83;3.10;;;;;;;-140.66;100.00;55571.53;5137431;27;20038;-74
2023/08/08 02:22:58;;;;;;;4.43;2.75;;;;;;;-140.66;100.00;55571.53;5136471;27;20106;-74
2023/08/08 02:25:44;;;;;;;4.88;2.97;;;;;;;-140.66;100.00;55571.53;5147112;27;20027;-72
2023/08/08 02:28:30;;;;;;;4.05;3.17;;;;;;;-140.66;100.00;55571.53;5149105;27;20042;-74
2023/08/08 02:31:20;;;;;;;4.80;2.83;;;;;;;-140.66;100.00;55571.53;5136594;27;20110;-73
2023/08/08 02:34:06;;;;;;;5.65;3.20;;;;;;;-140.66;100.00;55571.53;5136526;27;20027;-74
2023/08/08 02:36:51;;;;;;;4.68;3.20;;;;;;;-140.66;100.00;55571.53;5136013;27;20027;-74
2023/08/08 02:39:37;;;;;;;4.00;3.25;;;;;;;-140.66;100.00;55571.53;5135972;27;20367;-73
2023/08/08 02:42:23;;;;;;;6.10;3.38;;;;;;;-140.66;100.00;55571.53;5136185;27;20023;-75
2023/08/08 02:45:09;;;;;;;4.45;3.38;;;;;;;-140.66;100.00;55571.53;5135826;27;20084;-73
2023/08/08 02:47:55;;;;;;;3.80;3.38;;;;;;;-140.66;100.00;55571.53;5135789;27;20384;-74
2023/08/08 02:50:40;;;;;;;4.43;3.45;;;;;;;-140.66;100.00;55571.53;5154090;27;20043;-72
2023/08/08 02:53:26;;;;;;;3.92;3.50;;;;;;;-140.66;100.00;55571.53;5136336;27;20019;-74
2023/08/08 02:56:12;;;;;;;5.85;3.40;;;;;;;-140.66;100.00;55571.53;5122056;27;20027;-72
2023/08/08 02:58:58;;;;;;;3.97;3.40;;;;;;;-140.66;100.00;55571.53;5134856;27;20031;-74
2023/08/08 03:01:44;;;;;;;5.82;3.30;;;;;;;-140.66;100.00;55571.53;5136230;27;20035;-72
2023/08/08 03:04:29;;;;;;;5.18;3.70;;;;;;;-140.66;100.00;55571.53;5136899;27;20525;-73
2023/08/08 03:07:15;;;;;;;3.90;3.40;;;;;;;-140.66;100.00;55571.53;5135495;27;20106;-73
2023/08/08 03:10:01;;;;;;;3.88;3.50;;;;;;;-140.66;100.00;55571.53;5135082;27;20027;-75
2023/08/08 03:12:47;;;;;;;5.78;3.92;;;;;;;-140.66;100.00;55571.53;5135729;27;20368;-74
2023/08/08 03:15:32;;;;;;;4.60;3.40;;;;;;;-140.66;100.00;55571.53;5135543;27;20023;-73
2023/08/08 03:18:18;;;;;;;3.60;3.17;;;;;;;-140.66;100.00;55571.53;5136238;27;20035;-73
2023/08/08 03:21:04;;;;;;;4.22;3.28;;;;;;;-140.66;100.00;55571.53;5135203;27;20083;-74
2023/08/08 03:23:49;;;;;;;3.40;3.08;;;;;;;-140.66;100.00;55571.53;5135055;27;20038;-75
2023/08/08 03:26:35;;;;;;;4.32;3.40;;;;;;;-140.66;100.00;55571.53;5146631;27;20160;-74
2023/08/08 03:29:21;;;;;;;4.22;3.30;;;;;;;-140.66;100.00;55571.53;5148364;27;20117;-73
2023/08/08 03:32:07;;;;;;;3.45;3.15;;;;;;;-140.66;100.00;55571.53;5145739;27;20023;-73
2023/08/08 03:34:52;;;;;;;4.30;3.70;;;;;;;-140.66;100.00;55571.53;5146789;27;20019;-72
2023/08/08 03:37:38;;;;;;;3.58;3.22;;;;;;;-140.66;100.00;55571.53;5149275;27;20042;-74
2023/08/08 03:40:24;;;;;;;3.33;3.03;;;;;;;-140.66;100.00;55571.53;5145648;27;20050;-73
2023/08/08 03:43:09;;;;;;;4.97;3.40;;;;;;;-140.66;100.00;55571.53;5135319;27;20104;-73
2023/08/08 03:45:55;;;;;;;4.63;3.25;;;;;;;-140.66;100.00;55571.53;5134957;27;20062;-72
2023/08/08 03:48:41;;;;;;;5.63;3.58;;;;;;;-140.66;100.00;55571.53;5133799;27;20064;-74
2023/08/08 03:51:27;;;;;;;5.32;3.08;;;;;;;-140.66;100.00;55571.53;5134890;27;20030;-74
2023/08/08 03:54:12;;;;;;;4.03;3.20;;;;;;;-140.66;100.00;55571.53;5135867;27;20027;-74
2023/08/08 03:56:58;;;;;;;3.65;3.13;;;;;;;-140.66;100.00;55571.53;5136065;27;20368;-73
2023/08/08 03:59:44;;;;;;;4.53;3.13;;;;;;;-140.66;100.00;55571.53;5138754;27;20015;-73
2023/08/08 04:02:29;;;;;;;3.60;3.30;;;;;;;-140.66;100.00;55571.53;5147335;27;20491;-74
2023/08/08 04:05:15;;;;;;;4.72;3.30;;;;;;;-140.66;100.00;55571.53;5146643;27;20452;-73
2023/08/08 04:08:01;;;;;;;4.53;3.35;;;;;;;-140.66;100.00;55571.53;5136595;27;20118;-74
2023/08/08 04:10:47;;;;;;;6.82;3.80;;;;;;;-140.66;100.00;55571.53;5135503;27;20113;-74
2023/08/08 04:13:33;;;;;;;5.35;3.20;;;;;;;-140.66;100.00;55571.53;5134613;27;20023;-73
2023/08/08 04:16:19;;;;;;;3.47;3.15;;;;;;;-140.66;100.00;55571.53;5136043;27;20035;-74
2023/08/08 04:19:05;;;;;;;4.18;2.95;;;;;;;-140.66;100.00;55571.53;5135506;28;20027;-74
2023/08/08 04:21:51;;;;;;;4.13;3.05;;;;;;;-140.66;100.00;55571.53;5134857;28;20015;-73
2023/08/08 04:24:36;;;;;;;5.05;3.10;;;;;;;-140.66;100.00;55571.53;5134342;28;20049;-74
2023/08/08 04:27:22;;;;;;;6.07;3.60;;;;;;;-140.66;100.00;55571.53;5134499;28;20440;-75
2023/08/08 04:30:08;;;;;;;4.13;3.47;;;;;;;-140.66;100.00;55571.53;5134088;28;20035;-75
2023/08/08 04:32:54;;;;;;;5.78;3.35;;;;;;;-140.66;100.00;55571.53;5134538;28;20034;-73
2023/08/08 04:35:40;;;;;;;5.10;3.40;;;;;;;-140.66;100.00;55571.53;5135045;28;20027;-74
2023/08/08 04:38:26;;;;;;;4.10;3.70;;;;;;;-140.66;100.00;55571.53;5134295;28;20034;-75
2023/08/08 04:41:11;;;;;;;4.55;3.70;;;;;;;-140.66;100.00;55571.53;5133682;28;20448;-73
2023/08/08 04:43:57;;;;;;;4.60;4.00;;;;;;;-140.66;100.00;55571.53;5134974;28;20448;-73
2023/08/08 04:46:43;;;;;;;4.82;3.95;;;;;;;-140.66;100.00;55571.53;5134923;28;20089;-73
2023/08/08 04:49:28;;;;;;;4.38;3.95;;;;;;;-140.66;100.00;55571.53;5134655;28;20023;-72
2023/08/08 04:52:14;;;;;;;5.57;3.97;;;;;;;-140.66;100.00;55571.53;5134893;28;20066;-74
2023/08/08 04:55:00;;;;;;;4.80;4.30;;;;;;;-140.66;100.00;55571.53;5133999;28;20027;-73
2023/08/08 04:57:46;;;;;;;6.43;4.15;;;;;;;-140.66;100.00;55571.53;5133925;28;20472;-73
2023/08/08 05:00:31;;;;;;;6.45;4.50;;;;;;;-140.66;100.00;55571.53;5135710;27;20031;-74
2023/08/08 05:03:17;;;;;;;4.90;4.30;;;;;;;-140.66;100.00;55571.53;5138637;27;20019;-75
2023/08/08 05:06:03;;;;;;;6.97;5.30;;;;;;;-140.66;100.00;55571.53;5137752;27;20059;-74
2023/08/08 05:08:51;;;;;;;5.78;4.20;;;;;;;-140.66;100.00;55571.53;5138391;27;20027;-74
2023/08/08 05:11:37;;;;;;;6.07;4.30;;;;;;;-140.66;100.00;55571.53;5137544;27;20039;-75
2023/08/08 05:14:23;;;;;;;4.47;4.07;;;;;;;-140.66;100.00;55571.53;5136753;27;20356;-74
2023/08/08 05:17:08;;;;;;;5.68;5.07;;;;;;;-140.66;100.00;55571.53;5137285;27;20020;-75
2023/08/08 05:19:54;;;;;;;5.32;4.38;;;;;;;-140.66;100.00;55571.53;5147393;27;20019;-74
2023/08/08 05:22:40;;;;;;;5.13;4.32;;;;;;;-140.66;100.00;55571.53;5145600;27;20027;-74
2023/08/08 05:25:26;;;;;;;6.45;4.57;;;;;;;-140.66;100.00;55571.53;5152777;27;20027;-75
2023/08/08 05:28:11;;;;;;;5.93;4.32;;;;;;;-140.66;100.00;55571.53;5141277;27;20035;-74
2023/08/08 05:30:59;;;;;;;5.28;4.50;;;;;;;-140.66;100.00;55571.53;5139773;27;20050;-74
2023/08/08 05:33:44;;;;;;;4.72;4.28;;;;;;;-140.66;100.00;55571.53;5138258;27;20345;-74
2023/08/08 05:36:30;;;;;;;4.63;3.97;;;;;;;-140.66;100.00;55571.53;5140275;27;20083;-73
2023/08/08 05:39:16;;;;;;;6.00;3.83;;;;;;;-140.66;100.00;55571.53;5144514;27;20019;-74
2023/08/08 05:42:02;;;;;;;5.65;4.13;;;;;;;-140.66;100.00;55571.53;5138277;27;20027;-74
2023/08/08 05:44:47;;;;;;;8.27;4.68;;;;;;;-140.66;100.00;55571.53;5136816;27;20023;-74
2023/08/08 05:47:33;;;;;;;5.93;4.68;;;;;;;-140.66;100.00;55571.53;5136584;27;20051;-73
2023/08/08 05:50:19;;;;;;;5.80;4.72;;;;;;;-140.66;100.00;55571.53;5137099;27;20100;-74
2023/08/08 05:53:05;;;;;;;5.68;4.53;;;;;;;-140.66;100.00;55571.53;5137546;27;20035;-75
2023/08/08 05:55:51;;;;;;;7.93;4.50;;;;;;;-140.66;100.00;55571.53;5137549;27;20027;-74
2023/08/08 05:58:37;;;;;;;6.82;4.55;;;;;;;-140.66;100.00;55571.53;5137404;27;20166;-73
2023/08/08 06:01:23;;;;;;;4.80;4.30;;;;;;;-140.66;100.00;55571.53;5138345;27;20030;-74
2023/08/08 06:04:09;;;;;;;6.80;5.07;;;;;;;-140.66;100.00;55571.53;5136813;27;20027;-74
2023/08/08 06:06:54;;;;;;;5.00;4.50;;;;;;;-140.66;100.00;55571.53;5137746;27;20059;-74
2023/08/08 06:09:40;;;;;;;5.18;4.45;;;;;;;-140.66;100.00;55571.53;5136133;27;20030;-73
2023/08/08 06:12:26;;;;;;;5.63;4.32;;;;;;;-140.66;100.00;55571.53;5135706;27;20027;-73
2023/08/08 06:15:12;;;;;;;5.85;4.38;;;;;;;-140.66;100.00;55571.53;5136589;27;20045;-74
2023/08/08 06:17:57;;;;;;;5.72;4.82;;;;;;;-140.66;100.00;55571.53;5135908;27;20070;-74
2023/08/08 06:20:43;;;;;;;5.22;4.55;;;;;;;-140.66;100.00;55571.53;5136573;27;20068;-74
2023/08/08 06:23:29;;;;;;;6.05;5.05;;;;;;;-140.66;100.00;55571.53;5135231;27;20088;-74
2023/08/08 06:26:15;;;;;;;5.13;4.55;;;;;;;-140.66;100.00;55571.53;5136557;27;20547;-74
2023/08/08 06:29:00;;;;;;;4.97;4.47;;;;;;;-140.66;100.00;55571.53;5135734;27;20023;-73
2023/08/08 06:31:46;;;;;;;6.00;4.97;;;;;;;-140.66;100.00;55571.53;5136116;27;20111;-73
2023/08/08 06:34:32;;;;;;;5.13;4.43;;;;;;;-140.66;100.00;55571.53;5136907;27;20027;-74
2023/08/08 06:37:17;;;;;;;5.32;4.40;;;;;;;-140.66;100.00;55571.53;5135253;27;20095;-75
2023/08/08 06:40:04;;;;;;;5.95;4.68;;;;;;;-140.66;100.00;55571.53;5137194;27;20026;-73
2023/08/08 06:42:50;;;;;;;6.60;4.80;;;;;;;-140.66;100.00;55571.53;5136047;27;20031;-75
2023/08/08 06:45:36;;;;;;;4.38;3.97;;;;;;;-140.66;100.00;55571.53;5135477;27;20072;-74
2023/08/08 06:48:22;;;;;;;6.13;5.18;;;;;;;-140.66;100.00;55571.53;5135090;27;20047;-73
2023/08/08 06:51:08;;;;;;;6.38;5.40;;;;;;;-140.66;100.00;55571.53;5135581;27;20071;-73
2023/08/08 06:53:54;;;;;;;6.97;4.82;;;;;;;-140.66;100.00;55571.53;5134740;27;20087;-74
2023/08/08 06:56:39;;;;;;;6.13;5.35;;;;;;;-140.66;100.00;55571.53;5136933;27;20025;-72
2023/08/08 06:59:26;;;;;;;5.95;5.13;;;;;;;-140.66;100.00;55571.53;5135178;27;20027;-73
2023/08/08 07:02:14;;;;;;;6.28;5.65;;;;;;;-140.66;100.00;55571.53;5136043;27;20039;-75
2023/08/08 07:05:00;;;;;;;7.82;5.30;;;;;;;-140.66;100.00;55571.53;5135368;27;20057;-73
2023/08/08 07:07:46;;;;;;;9.48;5.72;;;;;;;-140.66;100.00;55571.53;5135772;27;20047;-74
2023/08/08 07:10:32;;;;;;;5.05;4.55;;;;;;;-140.66;100.00;55571.53;5135225;27;20027;-74
2023/08/08 07:13:17;;;;;;;5.43;4.55;;;;;;;-140.66;100.00;55571.53;5135478;27;20023;-73
2023/08/08 07:16:03;;;;;;;6.07;5.10;;;;;;;-140.66;100.00;55571.53;5135402;27;20023;-75
2023/08/08 07:18:49;;;;;;;5.40;4.25;;;;;;;-140.66;100.00;55571.53;5135239;27;20114;-75
2023/08/08 07:21:35;;;;;;;7.47;4.95;;;;;;;-140.66;100.00;55571.53;5135242;27;20020;-74
2023/08/08 07:24:20;;;;;;;4.93;4.43;;;;;;;-140.66;100.00;55571.53;5134311;27;20019;-75
2023/08/08 07:27:06;;;;;;;5.72;4.68;;;;;;;-140.66;100.00;55571.53;5135089;27;20027;-73
2023/08/08 07:29:52;;;;;;;5.35;4.85;;;;;;;-140.66;100.00;55571.53;5136027;27;20440;-73
2023/08/08 07:32:38;;;;;;;6.20;4.75;;;;;;;-140.66;100.00;55571.53;5135468;27;20055;-73
2023/08/08 07:35:23;;;;;;;7.55;4.80;;;;;;;-140.66;100.00;55571.53;5134711;27;20394;-74
2023/08/08 07:38:09;;;;;;;6.68;5.03;;;;;;;-140.66;100.00;55571.53;5134546;27;20441;-73
2023/08/08 07:40:55;;;;;;;5.28;4.63;;;;;;;-140.66;100.00;55571.53;5134642;27;20023;-74
2023/08/08 07:43:40;;;;;;;5.90;5.30;;;;;;;-140.66;100.00;55571.53;5134732;27;20027;-73
2023/08/08 07:46:26;;;;;;;5.85;4.60;;;;;;;-140.66;100.00;55571.53;5134063;27;20055;-73
2023/08/08 07:49:13;;;;;;;8.32;4.97;;;;;;;-140.66;100.00;55571.53;5134972;27;20023;-73
2023/08/08 07:51:59;;;;;;;8.13;4.90;;;;;;;-140.66;100.00;55571.53;5135050;27;20026;-72
2023/08/08 07:54:44;;;;;;;6.55;5.50;;;;;;;-140.66;100.00;55571.53;5134419;27;20023;-73
2023/08/08 07:57:33;;;;;;;7.28;4.82;;;;;;;-140.66;100.00;55571.53;5134761;27;20042;-74
2023/08/08 08:00:20;;;;;;;7.10;4.13;;;;;;;-140.66;100.00;55571.53;5141736;27;20022;-73
2023/08/08 08:03:06;;;;;;;4.82;4.13;;;;;;;-140.66;100.00;55571.53;5151887;27;20023;-73
2023/08/08 08:05:52;;;;;;;7.82;4.07;;;;;;;-140.66;100.00;55571.53;5134911;27;20081;-73
2023/08/08 08:08:38;;;;;;;7.93;3.75;;;;;;;-140.66;100.00;55571.53;5135546;27;20042;-73
2023/08/08 08:11:24;;;;;;;5.72;3.95;;;;;;;-140.66;100.00;55571.53;5134288;27;20108;-72
2023/08/08 08:14:10;;;;;;;5.93;3.85;;;;;;;-140.66;100.00;55571.53;5135878;27;20069;-73
2023/08/08 08:16:55;;;;;;;5.30;3.65;;;;;;;-140.66;100.00;55571.53;5135657;27;20042;-73
2023/08/08 08:19:41;;;;;;;4.53;3.20;;;;;;;-140.66;100.00;55571.53;5146287;27;20019;-72
2023/08/08 08:22:27;;;;;;;4.32;3.47;;;;;;;-140.66;100.00;55571.53;5141384;28;20035;-72
2023/08/08 08:25:14;;;;;;;4.97;3.35;;;;;;;-140.66;100.00;55571.53;5136149;28;20027;-74
2023/08/08 08:27:59;;;;;;;4.40;3.45;;;;;;;-140.66;100.00;55571.53;5136036;28;20353;-73
2023/08/08 08:30:45;;;;;;;5.72;3.42;;;;;;;-140.66;100.00;55571.53;5144514;28;20359;-73
2023/08/08 08:33:31;;;;;;;4.78;3.65;;;;;;;-140.66;100.00;55571.53;5148925;28;20034;-73
2023/08/08 08:36:17;;;;;;;4.72;3.80;;;;;;;-140.66;100.00;55571.53;5150832;27;20448;-73
2023/08/08 08:39:03;;;;;;;4.32;3.92;;;;;;;-140.66;100.00;55571.53;5153932;27;20130;-71
2023/08/08 08:41:54;;;;;;;7.10;4.05;;;;;;;-140.66;100.00;55571.53;5152768;27;20016;-72
2023/08/08 08:44:42;;;;;;;5.57;3.92;;;;;;;-140.66;100.00;55571.53;5152176;27;20054;-72
2023/08/08 08:47:30;;;;;;;4.90;4.00;;;;;;;-140.66;100.00;55571.53;5152036;27;20497;-73
2023/08/08 08:50:18;;;;;;;4.47;3.67;;;;;;;-140.66;100.00;55571.53;5152168;27;20023;-72
2023/08/08 08:53:04;;;;;;;7.10;4.13;;;;;;;-140.66;100.00;55571.53;5152015;27;20108;-72
2023/08/08 08:55:51;;;;;;;4.47;3.90;;;;;;;-140.66;100.00;55571.53;5149092;27;20015;-74
2023/08/08 08:58:36;;;;;;;3.72;3.42;;;;;;;-140.66;100.00;55571.53;5148372;27;20321;-74
2023/08/08 09:01:23;;;;;;;5.03;3.53;;;;;;;-140.66;100.00;55571.53;5153162;27;20023;-73
2023/08/08 09:04:10;;;;;;;4.05;3.65;;;;;;;-140.66;100.00;55571.53;5152376;27;20034;-75
2023/08/08 09:06:56;;;;;;;4.70;3.40;;;;;;;-140.66;100.00;55571.53;5145025;27;20043;-75
2023/08/08 09:09:45;;;;;;;4.72;3.20;;;;;;;-140.66;100.00;55571.53;5139003;27;20095;-74
2023/08/08 09:12:31;;;;;;;4.93;3.00;;;;;;;-140.66;100.00;55571.53;5138824;27;20037;-73
2023/08/08 09:15:17;;;;;;;4.63;3.10;;;;;;;-140.66;100.00;55571.53;5140617;27;20024;-73
2023/08/08 09:18:03;;;;;;;3.88;3.28;;;;;;;-140.66;100.00;55571.53;5142397;27;20365;-72
2023/08/08 09:20:49;;;;;;;5.22;3.30;;;;;;;-140.66;100.00;55571.53;5138921;27;20027;-73
2023/08/08 09:23:37;;;;;;;6.15;2.92;;;;;;;-140.66;100.00;55571.53;5139814;27;20027;-73
2023/08/08 09:26:23;;;;;;;5.90;3.13;;;;;;;-140.66;100.00;55571.53;5141234;27;20020;-73
2023/08/08 09:29:11;;;;;;;4.07;2.47;;;;;;;-140.66;100.00;55571.53;5138692;27;20027;-74
2023/08/08 09:31:56;;;;;;;4.20;2.60;;;;;;;-140.66;100.00;55571.53;5138463;27;20065;-74
2023/08/08 09:34:42;;;;;;;3.75;2.55;;;;;;;-140.66;100.00;55571.53;5137606;27;20023;-75
2023/08/08 09:37:29;;;;;;;2.50;2.30;;;;;;;-140.66;100.00;55571.53;5139298;27;20554;-75
2023/08/08 09:40:15;;;;;;;3.20;2.20;;;;;;;-140.66;100.00;55571.53;5138719;27;20123;-72
2023/08/08 09:43:02;;;;;;;4.07;2.58;;;;;;;-140.66;100.00;55571.53;5137457;27;20031;-73
2023/08/08 09:45:47;;;;;;;4.47;2.75;;;;;;;-140.66;100.00;55571.53;5137364;27;20114;-74
2023/08/08 09:48:33;;;;;;;6.20;2.42;;;;;;;-140.66;100.00;55571.53;5136648;27;20501;-72
2023/08/08 09:51:20;;;;;;;4.32;2.22;;;;;;;-140.66;100.00;55571.53;5138083;27;20019;-74
2023/08/08 09:54:07;;;;;;;4.50;2.33;;;;;;;-140.66;100.00;55571.53;5137876;27;20033;-74
2023/08/08 09:56:53;;;;;;;2.50;2.30;;;;;;;-140.66;100.00;55571.53;5137004;27;20463;-73
2023/08/08 09:59:40;;;;;;;6.28;2.08;;;;;;;-140.66;100.00;55571.53;5136481;27;20060;-73
2023/08/08 10:02:26;;;;;;;1.90;1.80;;;;;;;-140.66;100.00;55571.53;5137136;27;20027;-75
2023/08/08 10:05:13;;;;;;;2.88;2.20;;;;;;;-140.66;100.00;55571.53;5137207;27;20067;-75
2023/08/08 10:07:59;;;;;;;4.13;1.90;;;;;;;-140.66;100.00;55571.53;5138705;27;20027;-73
2023/08/08 10:10:48;;;;;;;4.28;2.50;;;;;;;-140.66;100.00;55571.53;5141231;27;20027;-74
2023/08/08 10:13:35;;;;;;;7.75;2.40;;;;;;;-140.66;100.00;55571.53;5126105;27;20066;-74
2023/08/08 10:16:22;;;;;;;6.47;1.88;;;;;;;-140.66;100.00;55571.53;5140480;27;20042;-72
2023/08/08 10:19:08;;;;;;;3.35;2.00;;;;;;;-140.66;100.00;55571.53;5140168;27;20090;-71
2023/08/08 10:22:05;;;;;;;4.90;1.90;;;;;;;-140.66;100.00;55571.53;5141782;27;20039;-73
2023/08/08 10:24:53;;;;;;;3.22;1.98;;;;;;;-140.66;100.00;55571.53;5140690;27;20057;-73
2023/08/08 10:27:40;;;;;;;6.38;2.28;;;;;;;-140.66;100.00;55571.53;5138024;27;20062;-74
2023/08/08 10:30:26;;;;;;;2.55;1.92;;;;;;;-140.66;100.00;55571.53;5136564;27;20100;-73
2023/08/08 10:34:20;;;;;;;3.15;1.65;;;;;;;-140.66;100.00;55571.53;5140104;27;20027;-74
2023/08/08 10:38:10;;;;;;;1.70;1.50;;;;;;;-140.66;100.00;55571.53;5137613;27;20463;-73
2023/08/08 10:42:00;;;;;;;4.18;1.75;;;;;;;-140.66;100.00;55571.53;5136026;27;20082;-74
2023/08/08 10:45:51;;;;;;;2.95;1.40;;;;;;;-140.66;100.00;55571.53;5135998;27;20030;-74
2023/08/08 10:49:35;;;;;;;2.00;1.30;;;;;;;-140.66;100.00;55571.53;5135569;27;20051;-74
2023/08/08 10:53:22;;;;;;;3.13;1.48;;;;;;;-140.66;100.00;55571.53;5136008;27;20031;-74
2023/08/08 10:57:16;;;;;;;2.00;1.40;;;;;;;-140.66;100.00;55571.53;5135946;27;20027;-75
2023/08/08 11:01:16;;;;;;;2.28;1.50;;;;;;;-140.66;100.00;55571.53;5134512;27;20425;-73
2023/08/08 11:05:03;;;;;;;1.88;1.30;;;;;;;-140.66;100.00;55571.53;5140382;27;20476;-72
2023/08/08 11:08:48;;;;;;;4.90;1.40;;;;;;;-140.66;100.00;55571.53;5142024;27;20106;-73
2023/08/08 11:12:35;;;;;;;3.33;1.33;;;;;;;-140.66;100.00;55571.53;5150144;27;20058;-72
2023/08/08 11:16:20;;;;;;;2.17;1.25;;;;;;;-140.66;100.00;55571.53;5144141;27;20034;-74
2023/08/08 11:20:04;;;;;;;6.50;1.70;;;;;;;-140.66;100.00;55571.53;5156350;27;20075;-73
2023/08/08 11:23:50;;;;;;;1.67;1.23;;;;;;;-140.66;100.00;55571.53;5135770;27;20459;-73
2023/08/08 11:27:35;;;;;;;2.08;0.90;;;;;;;-140.66;100.00;55571.53;5135207;27;20067;-74
2023/08/08 11:31:21;;;;;;;1.70;1.10;;;;;;;-140.66;100.00;55571.53;5135468;27;20027;-73
2023/08/08 11:35:06;;;;;;;1.05;0.82;;;;;;;-140.66;100.00;55571.53;5135953;27;20034;-75
2023/08/08 11:38:53;;;;;;;2.00;0.77;;;;;;;-140.66;100.00;55571.53;5135086;27;20027;-73
2023/08/08 11:42:38;;;;;;;4.05;1.25;;;;;;;-140.66;100.00;55571.53;5136399;27;20453;-75
2023/08/08 11:46:24;;;;;;;2.72;1.50;;;;;;;-140.66;100.00;55571.53;5145757;27;20035;-73
2023/08/08 11:50:09;;;;;;;2.25;1.40;;;;;;;-140.66;100.00;55571.53;5142298;27;20039;-74
2023/08/08 11:53:54;;;;;;;10.40;1.45;;;;;;;-140.66;100.00;55571.53;5135556;27;20225;-73
2023/08/08 11:57:39;;;;;;;3.10;1.10;;;;;;;-140.66;100.00;55571.53;5135483;27;20027;-72
2023/08/08 12:01:26;;;;;;;1.48;1.10;;;;;;;-140.66;100.00;55571.53;5134543;27;20390;-73
2023/08/08 12:05:11;;;;;;;2.50;1.27;;;;;;;-140.66;100.00;55571.53;5134061;27;20030;-73
2023/08/08 12:08:57;;;;;;;1.25;1.10;;;;;;;-140.66;100.00;55571.53;5134313;27;20077;-75
2023/08/08 12:12:41;;;;;;;2.22;1.30;;;;;;;-140.66;100.00;55571.53;5133299;27;20479;-73
2023/08/08 12:16:32;;;;;;;1.30;1.00;;;;;;;-140.66;100.00;55571.53;5134830;27;20038;-74
2023/08/08 12:20:20;;;;;;;4.65;1.02;;;;;;;-140.66;100.00;55571.53;5134246;27;20052;-75
2023/08/08 12:24:05;;;;;;;3.42;1.13;;;;;;;-140.66;100.00;55571.53;5134276;28;20353;-74
2023/08/08 12:27:49;;;;;;;2.70;0.93;;;;;;;-140.66;100.00;55571.53;5133821;28;20024;-73
2023/08/08 12:31:34;;;;;;;4.13;1.70;;;;;;;-140.66;100.00;55571.53;5135243;28;20102;-72
2023/08/08 12:35:20;;;;;;;1.77;1.10;;;;;;;-140.66;100.00;55571.53;5135420;28;20035;-72
2023/08/08 12:39:04;;;;;;;1.20;0.80;;;;;;;-140.66;100.00;55571.53;5133771;28;20046;-72
2023/08/08 12:42:49;;;;;;;2.03;0.90;;;;;;;-140.66;100.00;55571.53;5134575;28;20030;-72
2023/08/08 12:46:33;;;;;;;2.17;1.10;;;;;;;-140.66;100.00;55571.53;5134080;28;20110;-74
2023/08/08 12:50:17;;;;;;;5.47;3.30;;;;;;;-140.66;100.00;55571.53;5134038;28;20074;-73
2023/08/08 12:54:02;;;;;;;7.80;3.10;;;;;;;-140.66;100.00;55571.53;5135029;28;20027;-73
2023/08/08 12:57:46;;;;;;;5.35;4.00;;;;;;;-140.66;100.00;55571.53;5133719;28;20345;-73
2023/08/08 13:01:31;;;;;;;7.90;3.70;;;;;;;-140.66;100.00;55571.53;5133902;28;20449;-72
2023/08/08 13:05:15;;;;;;;4.53;3.33;;;;;;;-140.66;100.00;55571.53;5134478;28;20042;-73
2023/08/08 13:09:00;;;;;;;9.95;3.58;;;;;;;-140.66;100.00;55571.53;5134333;28;20479;-73
2023/08/08 13:12:44;;;;;;;5.53;3.50;;;;;;;-140.66;100.00;55571.53;5133278;28;20026;-73
2023/08/08 13:16:28;;;;;;;5.50;3.25;;;;;;;-140.66;100.00;55571.53;5134461;28;20407;-72
2023/08/08 13:20:12;;;;;;;4.65;3.40;;;;;;;-140.66;100.00;55571.53;5133446;28;20027;-72